sensor_id;sensor_type;location;lat;lon;timestamp;P1;durP1;ratioP1;P2;durP2;ratioP2
70997;SDS011;58663;52.040;4.634;2023-04-29T00:00:46;33.85;;;16.63;;
70997;SDS011;58663;52.040;4.634;2023-04-29T00:03:11;38.47;;;17.65;;
70997;SDS011;58663;52.040;4.634;2023-04-29T00:05:37;38.72;;;17.73;;
70997;SDS011;58663;52.040;4.634;2023-04-29T00:08:02;45.63;;;19.23;;
70997;SDS011;58663;52.040;4.634;2023-04-29T00:10:28;41.08;;;19.17;;
70997;SDS011;58663;52.040;4.634;2023-04-29T00:12:54;40.97;;;18.27;;
70997;SDS011;58663;52.040;4.634;2023-04-29T00:15:19;39.50;;;18.17;;
70997;SDS011;58663;52.040;4.634;2023-04-29T00:17:45;45.15;;;19.95;;
70997;SDS011;58663;52.040;4.634;2023-04-29T00:20:11;37.28;;;17.73;;
70997;SDS011;58663;52.040;4.634;2023-04-29T00:22:36;38.72;;;18.63;;
70997;SDS011;58663;52.040;4.634;2023-04-29T00:25:02;38.85;;;18.65;;
70997;SDS011;58663;52.040;4.634;2023-04-29T00:27:28;35.38;;;18.67;;
70997;SDS011;58663;52.040;4.634;2023-04-29T00:29:53;40.90;;;19.30;;
70997;SDS011;58663;52.040;4.634;2023-04-29T00:32:19;40.92;;;19.40;;
70997;SDS011;58663;52.040;4.634;2023-04-29T00:34:44;38.85;;;18.65;;
70997;SDS011;58663;52.040;4.634;2023-04-29T00:37:10;35.47;;;17.17;;
70997;SDS011;58663;52.040;4.634;2023-04-29T00:39:36;38.55;;;17.92;;
70997;SDS011;58663;52.040;4.634;2023-04-29T00:42:01;45.95;;;19.10;;
70997;SDS011;58663;52.040;4.634;2023-04-29T00:44:27;35.25;;;17.63;;
70997;SDS011;58663;52.040;4.634;2023-04-29T00:46:53;33.75;;;18.60;;
70997;SDS011;58663;52.040;4.634;2023-04-29T00:49:18;36.63;;;19.15;;
70997;SDS011;58663;52.040;4.634;2023-04-29T00:51:43;33.42;;;19.02;;
70997;SDS011;58663;52.040;4.634;2023-04-29T00:54:09;43.45;;;19.65;;
70997;SDS011;58663;52.040;4.634;2023-04-29T00:56:35;45.25;;;20.33;;
70997;SDS011;58663;52.040;4.634;2023-04-29T00:59:01;36.50;;;20.15;;
70997;SDS011;58663;52.040;4.634;2023-04-29T01:01:28;35.97;;;17.98;;
70997;SDS011;58663;52.040;4.634;2023-04-29T01:03:54;35.55;;;18.33;;
70997;SDS011;58663;52.040;4.634;2023-04-29T01:06:34;34.47;;;18.65;;
70997;SDS011;58663;52.040;4.634;2023-04-29T01:17:34;42.30;;;20.08;;
70997;SDS011;58663;52.040;4.634;2023-04-29T01:20:02;39.60;;;18.52;;
70997;SDS011;58663;52.040;4.634;2023-04-29T01:22:28;42.65;;;19.20;;
70997;SDS011;58663;52.040;4.634;2023-04-29T01:24:54;40.45;;;19.08;;
70997;SDS011;58663;52.040;4.634;2023-04-29T01:35:39;37.60;;;19.25;;
70997;SDS011;58663;52.040;4.634;2023-04-29T01:38:30;43.53;;;18.90;;
70997;SDS011;58663;52.040;4.634;2023-04-29T01:41:03;42.33;;;19.45;;
70997;SDS011;58663;52.040;4.634;2023-04-29T01:43:37;37.47;;;19.73;;
70997;SDS011;58663;52.040;4.634;2023-04-29T01:46:05;36.45;;;20.15;;
70997;SDS011;58663;52.040;4.634;2023-04-29T01:48:31;42.58;;;19.08;;
70997;SDS011;58663;52.040;4.634;2023-04-29T01:50:56;39.22;;;18.25;;
70997;SDS011;58663;52.040;4.634;2023-04-29T01:53:22;32.20;;;17.90;;
70997;SDS011;58663;52.040;4.634;2023-04-29T01:55:47;34.95;;;18.20;;
70997;SDS011;58663;52.040;4.634;2023-04-29T01:58:13;36.65;;;17.40;;
70997;SDS011;58663;52.040;4.634;2023-04-29T02:00:38;44.95;;;17.17;;
70997;SDS011;58663;52.040;4.634;2023-04-29T02:03:03;34.00;;;17.25;;
70997;SDS011;58663;52.040;4.634;2023-04-29T02:05:29;35.55;;;16.90;;
70997;SDS011;58663;52.040;4.634;2023-04-29T02:07:57;33.90;;;17.08;;
70997;SDS011;58663;52.040;4.634;2023-04-29T02:10:23;44.28;;;17.52;;
70997;SDS011;58663;52.040;4.634;2023-04-29T02:12:48;35.25;;;16.88;;
70997;SDS011;58663;52.040;4.634;2023-04-29T02:15:14;30.33;;;16.15;;
70997;SDS011;58663;52.040;4.634;2023-04-29T02:17:39;34.45;;;17.00;;
70997;SDS011;58663;52.040;4.634;2023-04-29T02:20:05;35.25;;;18.58;;
70997;SDS011;58663;52.040;4.634;2023-04-29T02:22:31;38.33;;;16.27;;
70997;SDS011;58663;52.040;4.634;2023-04-29T02:24:56;31.65;;;15.23;;
70997;SDS011;58663;52.040;4.634;2023-04-29T02:27:22;29.45;;;14.80;;
70997;SDS011;58663;52.040;4.634;2023-04-29T02:29:47;28.40;;;14.70;;
70997;SDS011;58663;52.040;4.634;2023-04-29T02:32:13;31.88;;;14.30;;
70997;SDS011;58663;52.040;4.634;2023-04-29T02:34:39;29.50;;;13.90;;
70997;SDS011;58663;52.040;4.634;2023-04-29T02:37:05;35.90;;;14.77;;
70997;SDS011;58663;52.040;4.634;2023-04-29T02:39:30;28.02;;;14.55;;
70997;SDS011;58663;52.040;4.634;2023-04-29T02:41:56;24.73;;;13.85;;
70997;SDS011;58663;52.040;4.634;2023-04-29T02:44:22;31.20;;;14.52;;
70997;SDS011;58663;52.040;4.634;2023-04-29T02:46:48;25.40;;;13.75;;
70997;SDS011;58663;52.040;4.634;2023-04-29T02:49:13;26.67;;;13.52;;
70997;SDS011;58663;52.040;4.634;2023-04-29T02:51:38;25.90;;;13.35;;
70997;SDS011;58663;52.040;4.634;2023-04-29T02:54:05;28.77;;;14.75;;
70997;SDS011;58663;52.040;4.634;2023-04-29T02:56:30;25.73;;;13.77;;
70997;SDS011;58663;52.040;4.634;2023-04-29T02:58:56;27.25;;;14.88;;
70997;SDS011;58663;52.040;4.634;2023-04-29T03:01:21;26.92;;;13.32;;
70997;SDS011;58663;52.040;4.634;2023-04-29T03:03:48;30.73;;;14.95;;
70997;SDS011;58663;52.040;4.634;2023-04-29T03:06:13;38.13;;;15.98;;
70997;SDS011;58663;52.040;4.634;2023-04-29T03:08:39;28.02;;;14.10;;
70997;SDS011;58663;52.040;4.634;2023-04-29T03:11:05;30.60;;;15.00;;
70997;SDS011;58663;52.040;4.634;2023-04-29T03:13:30;28.52;;;14.07;;
70997;SDS011;58663;52.040;4.634;2023-04-29T03:15:56;33.17;;;15.10;;
70997;SDS011;58663;52.040;4.634;2023-04-29T03:18:23;30.75;;;14.73;;
70997;SDS011;58663;52.040;4.634;2023-04-29T03:20:49;31.02;;;14.13;;
70997;SDS011;58663;52.040;4.634;2023-04-29T03:23:14;24.38;;;14.30;;
70997;SDS011;58663;52.040;4.634;2023-04-29T03:25:39;27.15;;;14.82;;
70997;SDS011;58663;52.040;4.634;2023-04-29T03:28:05;29.13;;;14.13;;
70997;SDS011;58663;52.040;4.634;2023-04-29T03:30:31;25.58;;;14.02;;
70997;SDS011;58663;52.040;4.634;2023-04-29T03:32:56;30.70;;;13.80;;
70997;SDS011;58663;52.040;4.634;2023-04-29T03:35:22;25.90;;;13.55;;
70997;SDS011;58663;52.040;4.634;2023-04-29T03:37:47;30.30;;;13.60;;
70997;SDS011;58663;52.040;4.634;2023-04-29T03:40:12;26.45;;;14.05;;
70997;SDS011;58663;52.040;4.634;2023-04-29T03:42:38;30.13;;;13.70;;
70997;SDS011;58663;52.040;4.634;2023-04-29T03:45:03;29.77;;;13.63;;
70997;SDS011;58663;52.040;4.634;2023-04-29T03:47:30;29.05;;;15.32;;
70997;SDS011;58663;52.040;4.634;2023-04-29T03:49:55;32.17;;;14.27;;
70997;SDS011;58663;52.040;4.634;2023-04-29T03:52:20;28.35;;;14.45;;
70997;SDS011;58663;52.040;4.634;2023-04-29T03:54:46;28.13;;;13.55;;
70997;SDS011;58663;52.040;4.634;2023-04-29T03:57:11;27.80;;;14.82;;
70997;SDS011;58663;52.040;4.634;2023-04-29T03:59:36;27.70;;;13.75;;
70997;SDS011;58663;52.040;4.634;2023-04-29T04:02:02;25.98;;;13.65;;
70997;SDS011;58663;52.040;4.634;2023-04-29T04:04:27;26.98;;;14.68;;
70997;SDS011;58663;52.040;4.634;2023-04-29T04:06:52;22.60;;;14.50;;
70997;SDS011;58663;52.040;4.634;2023-04-29T04:09:18;29.90;;;15.70;;
70997;SDS011;58663;52.040;4.634;2023-04-29T04:11:43;26.58;;;14.15;;
70997;SDS011;58663;52.040;4.634;2023-04-29T04:14:09;31.35;;;15.68;;
70997;SDS011;58663;52.040;4.634;2023-04-29T04:16:35;28.63;;;15.40;;
70997;SDS011;58663;52.040;4.634;2023-04-29T04:19:00;35.50;;;16.38;;
70997;SDS011;58663;52.040;4.634;2023-04-29T04:21:26;27.75;;;16.10;;
70997;SDS011;58663;52.040;4.634;2023-04-29T04:23:51;30.80;;;15.85;;
70997;SDS011;58663;52.040;4.634;2023-04-29T04:26:17;27.98;;;14.95;;
70997;SDS011;58663;52.040;4.634;2023-04-29T04:28:44;31.83;;;15.80;;
70997;SDS011;58663;52.040;4.634;2023-04-29T04:31:10;32.05;;;15.65;;
70997;SDS011;58663;52.040;4.634;2023-04-29T04:33:35;29.42;;;14.68;;
70997;SDS011;58663;52.040;4.634;2023-04-29T04:36:01;32.22;;;15.27;;
70997;SDS011;58663;52.040;4.634;2023-04-29T04:38:26;29.85;;;16.13;;
70997;SDS011;58663;52.040;4.634;2023-04-29T04:40:52;30.48;;;15.75;;
70997;SDS011;58663;52.040;4.634;2023-04-29T04:43:17;31.75;;;14.77;;
70997;SDS011;58663;52.040;4.634;2023-04-29T04:45:42;32.05;;;15.13;;
70997;SDS011;58663;52.040;4.634;2023-04-29T04:48:08;29.17;;;14.98;;
70997;SDS011;58663;52.040;4.634;2023-04-29T04:50:33;35.03;;;16.13;;
70997;SDS011;58663;52.040;4.634;2023-04-29T04:52:58;39.97;;;15.90;;
70997;SDS011;58663;52.040;4.634;2023-04-29T04:55:24;42.10;;;15.32;;
70997;SDS011;58663;52.040;4.634;2023-04-29T04:57:50;36.65;;;16.02;;
70997;SDS011;58663;52.040;4.634;2023-04-29T05:00:15;34.65;;;15.43;;
70997;SDS011;58663;52.040;4.634;2023-04-29T05:02:41;38.33;;;16.95;;
70997;SDS011;58663;52.040;4.634;2023-04-29T05:05:06;34.42;;;15.43;;
70997;SDS011;58663;52.040;4.634;2023-04-29T05:07:32;36.90;;;16.25;;
70997;SDS011;58663;52.040;4.634;2023-04-29T05:10:00;41.40;;;16.73;;
70997;SDS011;58663;52.040;4.634;2023-04-29T05:12:29;39.33;;;16.80;;
70997;SDS011;58663;52.040;4.634;2023-04-29T05:14:57;33.65;;;16.88;;
70997;SDS011;58663;52.040;4.634;2023-04-29T05:17:23;38.70;;;15.63;;
70997;SDS011;58663;52.040;4.634;2023-04-29T05:19:48;38.15;;;16.80;;
70997;SDS011;58663;52.040;4.634;2023-04-29T05:22:14;36.17;;;17.33;;
70997;SDS011;58663;52.040;4.634;2023-04-29T05:24:39;45.50;;;17.42;;
70997;SDS011;58663;52.040;4.634;2023-04-29T05:27:05;36.97;;;16.25;;
70997;SDS011;58663;52.040;4.634;2023-04-29T05:29:30;31.58;;;16.77;;
70997;SDS011;58663;52.040;4.634;2023-04-29T05:31:56;38.35;;;16.17;;
70997;SDS011;58663;52.040;4.634;2023-04-29T05:34:21;37.20;;;16.17;;
70997;SDS011;58663;52.040;4.634;2023-04-29T05:36:46;42.72;;;16.70;;
70997;SDS011;58663;52.040;4.634;2023-04-29T05:39:12;38.65;;;16.73;;
70997;SDS011;58663;52.040;4.634;2023-04-29T05:41:37;40.78;;;16.17;;
70997;SDS011;58663;52.040;4.634;2023-04-29T05:44:02;33.13;;;16.17;;
70997;SDS011;58663;52.040;4.634;2023-04-29T05:46:28;29.33;;;14.07;;
70997;SDS011;58663;52.040;4.634;2023-04-29T05:48:53;31.70;;;14.40;;
70997;SDS011;58663;52.040;4.634;2023-04-29T05:51:19;31.60;;;13.27;;
70997;SDS011;58663;52.040;4.634;2023-04-29T05:53:44;25.85;;;13.95;;
70997;SDS011;58663;52.040;4.634;2023-04-29T05:56:09;33.35;;;13.77;;
70997;SDS011;58663;52.040;4.634;2023-04-29T05:58:35;30.88;;;14.45;;
70997;SDS011;58663;52.040;4.634;2023-04-29T06:01:00;31.13;;;14.20;;
70997;SDS011;58663;52.040;4.634;2023-04-29T06:03:26;23.38;;;13.30;;
70997;SDS011;58663;52.040;4.634;2023-04-29T06:05:51;32.00;;;13.50;;
70997;SDS011;58663;52.040;4.634;2023-04-29T06:08:17;22.92;;;12.13;;
70997;SDS011;58663;52.040;4.634;2023-04-29T06:10:43;24.13;;;13.02;;
70997;SDS011;58663;52.040;4.634;2023-04-29T06:13:09;26.25;;;12.50;;
70997;SDS011;58663;52.040;4.634;2023-04-29T06:15:35;23.60;;;12.05;;
70997;SDS011;58663;52.040;4.634;2023-04-29T06:18:00;24.05;;;11.85;;
70997;SDS011;58663;52.040;4.634;2023-04-29T06:20:26;26.55;;;11.43;;
70997;SDS011;58663;52.040;4.634;2023-04-29T06:22:51;22.75;;;11.30;;
70997;SDS011;58663;52.040;4.634;2023-04-29T06:25:16;28.77;;;12.05;;
70997;SDS011;58663;52.040;4.634;2023-04-29T06:27:42;27.67;;;11.73;;
70997;SDS011;58663;52.040;4.634;2023-04-29T06:30:07;25.15;;;11.63;;
70997;SDS011;58663;52.040;4.634;2023-04-29T06:32:33;20.23;;;10.13;;
70997;SDS011;58663;52.040;4.634;2023-04-29T06:34:58;19.48;;;10.77;;
70997;SDS011;58663;52.040;4.634;2023-04-29T06:37:25;22.55;;;10.82;;
70997;SDS011;58663;52.040;4.634;2023-04-29T06:39:50;19.67;;;11.00;;
70997;SDS011;58663;52.040;4.634;2023-04-29T06:42:16;18.13;;;10.35;;
70997;SDS011;58663;52.040;4.634;2023-04-29T06:44:41;25.58;;;11.30;;
70997;SDS011;58663;52.040;4.634;2023-04-29T06:47:07;24.77;;;10.25;;
70997;SDS011;58663;52.040;4.634;2023-04-29T06:49:32;19.40;;;9.95;;
70997;SDS011;58663;52.040;4.634;2023-04-29T06:51:58;20.15;;;9.98;;
70997;SDS011;58663;52.040;4.634;2023-04-29T06:54:23;17.40;;;9.43;;
70997;SDS011;58663;52.040;4.634;2023-04-29T06:56:49;14.95;;;8.45;;
70997;SDS011;58663;52.040;4.634;2023-04-29T06:59:15;20.05;;;9.55;;
70997;SDS011;58663;52.040;4.634;2023-04-29T07:01:40;13.65;;;7.70;;
70997;SDS011;58663;52.040;4.634;2023-04-29T07:04:05;15.93;;;8.10;;
70997;SDS011;58663;52.040;4.634;2023-04-29T07:06:31;14.27;;;8.57;;
70997;SDS011;58663;52.040;4.634;2023-04-29T07:08:56;19.20;;;8.82;;
70997;SDS011;58663;52.040;4.634;2023-04-29T07:11:22;21.15;;;7.93;;
70997;SDS011;58663;52.040;4.634;2023-04-29T07:13:49;22.58;;;8.30;;
70997;SDS011;58663;52.040;4.634;2023-04-29T07:16:15;15.68;;;7.88;;
70997;SDS011;58663;52.040;4.634;2023-04-29T07:18:42;16.70;;;7.80;;
70997;SDS011;58663;52.040;4.634;2023-04-29T07:21:08;12.82;;;8.07;;
70997;SDS011;58663;52.040;4.634;2023-04-29T07:23:33;18.80;;;7.80;;
70997;SDS011;58663;52.040;4.634;2023-04-29T07:26:07;12.60;;;7.68;;
70997;SDS011;58663;52.040;4.634;2023-04-29T07:28:35;17.95;;;7.70;;
70997;SDS011;58663;52.040;4.634;2023-04-29T07:31:01;15.88;;;8.85;;
70997;SDS011;58663;52.040;4.634;2023-04-29T07:33:26;13.98;;;8.02;;
70997;SDS011;58663;52.040;4.634;2023-04-29T07:35:53;13.05;;;8.05;;
70997;SDS011;58663;52.040;4.634;2023-04-29T07:38:19;13.15;;;7.18;;
70997;SDS011;58663;52.040;4.634;2023-04-29T07:40:45;17.88;;;8.30;;
70997;SDS011;58663;52.040;4.634;2023-04-29T07:43:10;12.07;;;7.38;;
70997;SDS011;58663;52.040;4.634;2023-04-29T07:45:37;11.05;;;6.50;;
70997;SDS011;58663;52.040;4.634;2023-04-29T07:48:04;13.32;;;7.35;;
70997;SDS011;58663;52.040;4.634;2023-04-29T07:50:30;11.88;;;6.55;;
70997;SDS011;58663;52.040;4.634;2023-04-29T07:52:55;14.15;;;6.90;;
70997;SDS011;58663;52.040;4.634;2023-04-29T07:55:21;12.68;;;5.68;;
70997;SDS011;58663;52.040;4.634;2023-04-29T07:57:47;11.05;;;5.80;;
70997;SDS011;58663;52.040;4.634;2023-04-29T08:00:12;10.15;;;5.80;;
70997;SDS011;58663;52.040;4.634;2023-04-29T08:02:38;14.25;;;6.75;;
70997;SDS011;58663;52.040;4.634;2023-04-29T08:05:03;9.55;;;6.10;;
70997;SDS011;58663;52.040;4.634;2023-04-29T08:07:29;14.55;;;5.82;;
70997;SDS011;58663;52.040;4.634;2023-04-29T08:09:54;12.00;;;5.50;;
70997;SDS011;58663;52.040;4.634;2023-04-29T08:12:20;10.57;;;6.10;;
70997;SDS011;58663;52.040;4.634;2023-04-29T08:14:45;12.48;;;5.50;;
70997;SDS011;58663;52.040;4.634;2023-04-29T08:17:10;10.00;;;5.55;;
70997;SDS011;58663;52.040;4.634;2023-04-29T08:19:36;8.07;;;4.72;;
70997;SDS011;58663;52.040;4.634;2023-04-29T08:22:01;9.85;;;5.03;;
70997;SDS011;58663;52.040;4.634;2023-04-29T08:24:28;7.75;;;4.40;;
70997;SDS011;58663;52.040;4.634;2023-04-29T08:26:54;11.27;;;5.13;;
70997;SDS011;58663;52.040;4.634;2023-04-29T08:29:19;9.52;;;4.50;;
70997;SDS011;58663;52.040;4.634;2023-04-29T08:31:45;12.52;;;5.20;;
70997;SDS011;58663;52.040;4.634;2023-04-29T08:34:10;10.90;;;4.97;;
70997;SDS011;58663;52.040;4.634;2023-04-29T08:36:36;7.90;;;5.30;;
70997;SDS011;58663;52.040;4.634;2023-04-29T08:39:02;15.73;;;6.25;;
70997;SDS011;58663;52.040;4.634;2023-04-29T08:41:29;8.85;;;4.70;;
70997;SDS011;58663;52.040;4.634;2023-04-29T08:43:57;12.00;;;6.28;;
70997;SDS011;58663;52.040;4.634;2023-04-29T08:46:25;16.77;;;6.28;;
70997;SDS011;58663;52.040;4.634;2023-04-29T08:48:51;12.73;;;5.88;;
70997;SDS011;58663;52.040;4.634;2023-04-29T08:51:16;11.00;;;5.70;;
70997;SDS011;58663;52.040;4.634;2023-04-29T08:53:42;13.02;;;6.47;;
70997;SDS011;58663;52.040;4.634;2023-04-29T08:56:08;13.23;;;5.93;;
70997;SDS011;58663;52.040;4.634;2023-04-29T08:58:36;9.95;;;5.93;;
70997;SDS011;58663;52.040;4.634;2023-04-29T09:01:05;10.57;;;5.90;;
70997;SDS011;58663;52.040;4.634;2023-04-29T09:03:41;11.50;;;5.60;;
70997;SDS011;58663;52.040;4.634;2023-04-29T09:06:09;11.18;;;5.57;;
70997;SDS011;58663;52.040;4.634;2023-04-29T09:08:35;10.30;;;5.68;;
70997;SDS011;58663;52.040;4.634;2023-04-29T09:11:01;13.23;;;6.25;;
70997;SDS011;58663;52.040;4.634;2023-04-29T09:13:28;11.30;;;6.40;;
70997;SDS011;58663;52.040;4.634;2023-04-29T09:15:54;7.45;;;4.50;;
70997;SDS011;58663;52.040;4.634;2023-04-29T09:21:18;15.27;;;6.35;;
70997;SDS011;58663;52.040;4.634;2023-04-29T09:23:45;11.57;;;5.90;;
70997;SDS011;58663;52.040;4.634;2023-04-29T09:26:12;13.30;;;5.97;;
70997;SDS011;58663;52.040;4.634;2023-04-29T09:28:38;10.40;;;5.53;;
70997;SDS011;58663;52.040;4.634;2023-04-29T09:31:09;16.60;;;7.03;;
70997;SDS011;58663;52.040;4.634;2023-04-29T09:33:53;7.70;;;5.40;;
70997;SDS011;58663;52.040;4.634;2023-04-29T09:39:07;11.88;;;6.30;;
70997;SDS011;58663;52.040;4.634;2023-04-29T09:41:37;9.30;;;5.70;;
70997;SDS011;58663;52.040;4.634;2023-04-29T09:47:08;13.27;;;6.32;;
70997;SDS011;58663;52.040;4.634;2023-04-29T09:52:03;13.75;;;5.57;;
70997;SDS011;58663;52.040;4.634;2023-04-29T09:54:30;10.32;;;5.93;;
70997;SDS011;58663;52.040;4.634;2023-04-29T09:56:57;12.55;;;5.72;;
70997;SDS011;58663;52.040;4.634;2023-04-29T09:59:23;8.07;;;4.93;;
70997;SDS011;58663;52.040;4.634;2023-04-29T10:01:53;9.45;;;5.85;;
70997;SDS011;58663;52.040;4.634;2023-04-29T10:04:19;18.02;;;6.32;;
70997;SDS011;58663;52.040;4.634;2023-04-29T10:06:47;9.82;;;6.40;;
70997;SDS011;58663;52.040;4.634;2023-04-29T10:09:14;13.43;;;5.97;;
70997;SDS011;58663;52.040;4.634;2023-04-29T10:11:40;9.23;;;5.63;;
70997;SDS011;58663;52.040;4.634;2023-04-29T10:14:06;11.10;;;5.72;;
70997;SDS011;58663;52.040;4.634;2023-04-29T10:16:33;10.68;;;5.75;;
70997;SDS011;58663;52.040;4.634;2023-04-29T10:18:59;12.38;;;5.60;;
70997;SDS011;58663;52.040;4.634;2023-04-29T10:21:28;10.15;;;5.53;;
70997;SDS011;58663;52.040;4.634;2023-04-29T10:23:55;4.50;;;3.40;;
70997;SDS011;58663;52.040;4.634;2023-04-29T10:26:23;6.22;;;4.45;;
70997;SDS011;58663;52.040;4.634;2023-04-29T10:28:51;9.68;;;6.10;;
70997;SDS011;58663;52.040;4.634;2023-04-29T10:31:18;11.52;;;4.90;;
70997;SDS011;58663;52.040;4.634;2023-04-29T10:33:44;8.93;;;4.38;;
70997;SDS011;58663;52.040;4.634;2023-04-29T10:36:11;9.88;;;5.43;;
70997;SDS011;58663;52.040;4.634;2023-04-29T10:38:41;8.18;;;5.38;;
70997;SDS011;58663;52.040;4.634;2023-04-29T10:41:14;11.45;;;5.63;;
70997;SDS011;58663;52.040;4.634;2023-04-29T10:43:43;12.73;;;6.45;;
70997;SDS011;58663;52.040;4.634;2023-04-29T10:48:47;8.20;;;6.40;;
70997;SDS011;58663;52.040;4.634;2023-04-29T10:51:30;10.93;;;6.75;;
70997;SDS011;58663;52.040;4.634;2023-04-29T10:54:01;9.70;;;6.35;;
70997;SDS011;58663;52.040;4.634;2023-04-29T10:56:36;11.13;;;6.43;;
70997;SDS011;58663;52.040;4.634;2023-04-29T10:59:03;7.85;;;5.25;;
70997;SDS011;58663;52.040;4.634;2023-04-29T11:04:10;15.82;;;9.10;;
70997;SDS011;58663;52.040;4.634;2023-04-29T11:11:57;7.88;;;4.40;;
70997;SDS011;58663;52.040;4.634;2023-04-29T11:17:03;9.30;;;4.82;;
70997;SDS011;58663;52.040;4.634;2023-04-29T11:19:36;12.45;;;7.53;;
70997;SDS011;58663;52.040;4.634;2023-04-29T11:22:12;11.40;;;6.95;;
70997;SDS011;58663;52.040;4.634;2023-04-29T11:24:52;11.65;;;5.45;;
70997;SDS011;58663;52.040;4.634;2023-04-29T11:27:18;10.82;;;6.00;;
70997;SDS011;58663;52.040;4.634;2023-04-29T11:29:48;14.40;;;5.40;;
70997;SDS011;58663;52.040;4.634;2023-04-29T11:32:14;7.50;;;3.50;;
70997;SDS011;58663;52.040;4.634;2023-04-29T11:34:39;7.45;;;4.35;;
70997;SDS011;58663;52.040;4.634;2023-04-29T11:37:04;11.95;;;5.60;;
70997;SDS011;58663;52.040;4.634;2023-04-29T11:39:33;9.77;;;4.70;;
70997;SDS011;58663;52.040;4.634;2023-04-29T11:42:03;9.50;;;4.50;;
70997;SDS011;58663;52.040;4.634;2023-04-29T11:44:29;7.93;;;4.30;;
70997;SDS011;58663;52.040;4.634;2023-04-29T11:47:04;9.23;;;4.90;;
70997;SDS011;58663;52.040;4.634;2023-04-29T11:49:31;10.85;;;5.50;;
70997;SDS011;58663;52.040;4.634;2023-04-29T11:51:57;8.93;;;5.13;;
70997;SDS011;58663;52.040;4.634;2023-04-29T11:54:26;13.32;;;5.95;;
70997;SDS011;58663;52.040;4.634;2023-04-29T11:56:53;8.82;;;5.25;;
70997;SDS011;58663;52.040;4.634;2023-04-29T11:59:19;10.63;;;5.18;;
70997;SDS011;58663;52.040;4.634;2023-04-29T12:01:45;8.23;;;4.60;;
70997;SDS011;58663;52.040;4.634;2023-04-29T12:04:10;8.52;;;4.45;;
70997;SDS011;58663;52.040;4.634;2023-04-29T12:06:36;9.90;;;5.13;;
70997;SDS011;58663;52.040;4.634;2023-04-29T12:09:01;8.38;;;4.28;;
70997;SDS011;58663;52.040;4.634;2023-04-29T12:11:28;9.57;;;4.95;;
70997;SDS011;58663;52.040;4.634;2023-04-29T12:13:54;6.65;;;5.10;;
70997;SDS011;58663;52.040;4.634;2023-04-29T12:16:20;7.20;;;4.75;;
70997;SDS011;58663;52.040;4.634;2023-04-29T12:18:48;10.18;;;5.28;;
70997;SDS011;58663;52.040;4.634;2023-04-29T12:21:16;7.55;;;4.88;;
70997;SDS011;58663;52.040;4.634;2023-04-29T12:23:42;7.28;;;5.43;;
70997;SDS011;58663;52.040;4.634;2023-04-29T12:26:07;11.65;;;5.90;;
70997;SDS011;58663;52.040;4.634;2023-04-29T12:28:33;12.45;;;6.07;;
70997;SDS011;58663;52.040;4.634;2023-04-29T12:30:59;8.90;;;5.60;;
70997;SDS011;58663;52.040;4.634;2023-04-29T12:33:26;11.77;;;6.18;;
70997;SDS011;58663;52.040;4.634;2023-04-29T12:35:56;9.15;;;5.90;;
70997;SDS011;58663;52.040;4.634;2023-04-29T12:38:23;9.02;;;6.72;;
70997;SDS011;58663;52.040;4.634;2023-04-29T12:40:53;11.13;;;6.00;;
70997;SDS011;58663;52.040;4.634;2023-04-29T12:43:24;8.35;;;5.70;;
70997;SDS011;58663;52.040;4.634;2023-04-29T12:45:53;8.35;;;5.53;;
70997;SDS011;58663;52.040;4.634;2023-04-29T12:48:20;11.02;;;6.03;;
70997;SDS011;58663;52.040;4.634;2023-04-29T12:50:47;10.95;;;6.35;;
70997;SDS011;58663;52.040;4.634;2023-04-29T12:53:13;10.13;;;6.35;;
70997;SDS011;58663;52.040;4.634;2023-04-29T12:55:39;13.82;;;5.88;;
70997;SDS011;58663;52.040;4.634;2023-04-29T12:58:04;8.13;;;5.50;;
70997;SDS011;58663;52.040;4.634;2023-04-29T13:00:31;8.65;;;5.68;;
70997;SDS011;58663;52.040;4.634;2023-04-29T13:02:56;14.20;;;5.65;;
70997;SDS011;58663;52.040;4.634;2023-04-29T13:05:22;14.65;;;6.45;;
70997;SDS011;58663;52.040;4.634;2023-04-29T13:07:48;11.85;;;5.70;;
70997;SDS011;58663;52.040;4.634;2023-04-29T13:10:13;9.60;;;5.82;;
70997;SDS011;58663;52.040;4.634;2023-04-29T13:12:40;9.68;;;5.70;;
70997;SDS011;58663;52.040;4.634;2023-04-29T13:15:05;10.85;;;6.07;;
70997;SDS011;58663;52.040;4.634;2023-04-29T13:17:35;13.60;;;6.32;;
70997;SDS011;58663;52.040;4.634;2023-04-29T13:20:04;13.43;;;5.90;;
70997;SDS011;58663;52.040;4.634;2023-04-29T13:22:30;25.65;;;6.20;;
70997;SDS011;58663;52.040;4.634;2023-04-29T13:24:56;8.73;;;5.40;;
70997;SDS011;58663;52.040;4.634;2023-04-29T13:27:21;8.70;;;5.57;;
70997;SDS011;58663;52.040;4.634;2023-04-29T13:29:47;9.88;;;5.30;;
70997;SDS011;58663;52.040;4.634;2023-04-29T13:32:12;10.88;;;5.70;;
70997;SDS011;58663;52.040;4.634;2023-04-29T13:34:38;11.82;;;5.70;;
70997;SDS011;58663;52.040;4.634;2023-04-29T13:37:07;8.02;;;4.78;;
70997;SDS011;58663;52.040;4.634;2023-04-29T13:39:32;8.93;;;6.00;;
70997;SDS011;58663;52.040;4.634;2023-04-29T13:41:58;7.75;;;5.28;;
70997;SDS011;58663;52.040;4.634;2023-04-29T13:44:23;10.95;;;5.20;;
70997;SDS011;58663;52.040;4.634;2023-04-29T13:46:49;9.32;;;5.35;;
70997;SDS011;58663;52.040;4.634;2023-04-29T13:49:15;9.45;;;5.03;;
70997;SDS011;58663;52.040;4.634;2023-04-29T13:51:41;9.68;;;5.32;;
70997;SDS011;58663;52.040;4.634;2023-04-29T13:54:06;11.27;;;5.07;;
70997;SDS011;58663;52.040;4.634;2023-04-29T13:56:32;8.00;;;4.70;;
70997;SDS011;58663;52.040;4.634;2023-04-29T13:58:57;12.35;;;5.18;;
70997;SDS011;58663;52.040;4.634;2023-04-29T14:01:22;11.85;;;5.35;;
70997;SDS011;58663;52.040;4.634;2023-04-29T14:03:48;10.70;;;4.90;;
70997;SDS011;58663;52.040;4.634;2023-04-29T14:06:13;14.18;;;5.38;;
70997;SDS011;58663;52.040;4.634;2023-04-29T14:08:39;8.52;;;5.55;;
70997;SDS011;58663;52.040;4.634;2023-04-29T14:11:05;8.18;;;5.03;;
70997;SDS011;58663;52.040;4.634;2023-04-29T14:13:30;9.73;;;4.93;;
70997;SDS011;58663;52.040;4.634;2023-04-29T14:15:55;11.27;;;5.10;;
70997;SDS011;58663;52.040;4.634;2023-04-29T14:18:21;6.28;;;4.22;;
70997;SDS011;58663;52.040;4.634;2023-04-29T14:20:46;11.25;;;5.35;;
70997;SDS011;58663;52.040;4.634;2023-04-29T14:23:11;10.63;;;4.95;;
70997;SDS011;58663;52.040;4.634;2023-04-29T14:25:37;8.35;;;4.72;;
70997;SDS011;58663;52.040;4.634;2023-04-29T14:28:02;8.52;;;4.38;;
70997;SDS011;58663;52.040;4.634;2023-04-29T14:30:28;9.65;;;4.15;;
70997;SDS011;58663;52.040;4.634;2023-04-29T14:32:53;8.55;;;4.05;;
70997;SDS011;58663;52.040;4.634;2023-04-29T14:35:18;9.23;;;4.65;;
70997;SDS011;58663;52.040;4.634;2023-04-29T14:37:44;7.20;;;4.32;;
70997;SDS011;58663;52.040;4.634;2023-04-29T14:40:10;9.82;;;4.78;;
70997;SDS011;58663;52.040;4.634;2023-04-29T14:42:35;7.20;;;3.83;;
70997;SDS011;58663;52.040;4.634;2023-04-29T14:45:01;8.15;;;4.85;;
70997;SDS011;58663;52.040;4.634;2023-04-29T14:47:27;7.13;;;4.18;;
70997;SDS011;58663;52.040;4.634;2023-04-29T14:49:52;9.45;;;4.28;;
70997;SDS011;58663;52.040;4.634;2023-04-29T14:52:18;9.02;;;5.30;;
70997;SDS011;58663;52.040;4.634;2023-04-29T14:54:43;6.63;;;4.20;;
70997;SDS011;58663;52.040;4.634;2023-04-29T14:57:09;8.80;;;4.55;;
70997;SDS011;58663;52.040;4.634;2023-04-29T14:59:34;7.45;;;4.20;;
70997;SDS011;58663;52.040;4.634;2023-04-29T15:02:00;10.73;;;4.82;;
70997;SDS011;58663;52.040;4.634;2023-04-29T15:04:25;9.80;;;4.70;;
70997;SDS011;58663;52.040;4.634;2023-04-29T15:06:52;7.72;;;4.18;;